createdAt,value
2022-09-10T00:00:17.842Z,92.02
2022-09-10T00:02:45.384Z,92.58
2022-09-10T00:05:13.189Z,92.79
2022-09-10T00:07:39.972Z,93.67
2022-09-10T00:10:06.840Z,93.34
2022-09-10T00:12:34.647Z,93.15
2022-09-10T00:15:01.940Z,92.96
2022-09-10T00:17:29.171Z,92.58
2022-09-10T00:19:55.982Z,93.63
2022-09-10T00:22:22.774Z,92.64
2022-09-10T00:24:49.523Z,93.31
2022-09-10T00:27:16.269Z,92.89
2022-09-10T00:29:42.967Z,93.18
2022-09-10T00:32:10.035Z,92.81
2022-09-10T00:34:36.747Z,93.27
2022-09-10T00:37:03.493Z,93.41
2022-09-10T00:39:30.248Z,93.23
2022-09-10T00:41:58.267Z,92.42
2022-09-10T00:44:37.502Z,93.49
2022-09-10T00:47:06.247Z,93.14
2022-09-10T00:49:40.338Z,93.38
2022-09-10T00:52:07.865Z,92.55
2022-09-10T00:54:36.188Z,93.32
2022-09-10T00:57:07.731Z,91.96
2022-09-10T00:59:35.180Z,92.71
2022-09-10T01:02:02.747Z,92.30
2022-09-10T01:04:29.645Z,92.92
2022-09-10T01:06:56.490Z,92.62
2022-09-10T01:09:24.028Z,92.43
2022-09-10T01:11:57.064Z,91.89
2022-09-10T01:14:42.073Z,92.41
2022-09-10T01:17:18.376Z,91.92
2022-09-10T01:20:26.232Z,92.87
2022-09-10T01:22:59.879Z,91.79
2022-09-10T01:25:33.453Z,91.29
2022-09-10T01:28:05.759Z,92.86
2022-09-10T01:30:35.979Z,92.62
2022-09-10T01:33:12.082Z,93.24
2022-09-10T01:35:51.173Z,92.90
2022-09-10T01:38:27.113Z,92.85
2022-09-10T01:40:56.154Z,92.36
2022-09-10T01:43:24.774Z,92.34
2022-09-10T01:46:27.353Z,93.21
2022-09-10T01:49:05.766Z,92.73
2022-09-10T01:51:48.983Z,92.52
2022-09-10T01:54:37.082Z,92.26
2022-09-10T01:57:07.088Z,92.56
2022-09-10T01:59:46.669Z,92.42
2022-09-10T02:02:17.900Z,92.77
2022-09-10T02:04:46.225Z,92.68
2022-09-10T02:07:14.400Z,92.61
2022-09-10T02:09:42.492Z,92.30
2022-09-10T02:12:12.756Z,92.92
2022-09-10T02:15:11.927Z,92.73
2022-09-10T02:17:53.703Z,92.47
2022-09-10T02:20:22.171Z,93.11
2022-09-10T02:22:52.546Z,92.77
2022-09-10T02:25:20.175Z,93.33
2022-09-10T02:27:47.137Z,92.75
2022-09-10T02:30:13.966Z,93.03
2022-09-10T02:32:41.395Z,92.53
2022-09-10T02:35:08.723Z,92.53
2022-09-10T02:37:35.992Z,92.94
2022-09-10T02:40:03.940Z,92.77
2022-09-10T02:42:30.756Z,93.34
2022-09-10T02:44:57.546Z,93.69
2022-09-10T02:47:24.405Z,93.91
2022-09-10T02:49:51.308Z,92.66
2022-09-10T02:52:18.069Z,92.83
2022-09-10T02:54:45.731Z,92.08
2022-09-10T02:57:12.494Z,92.40
2022-09-10T02:59:39.359Z,92.38
2022-09-10T03:02:06.205Z,93.10
2022-09-10T03:04:33.098Z,92.78
2022-09-10T03:06:59.901Z,93.07
2022-09-10T03:09:28.908Z,91.46
2022-09-10T03:11:56.101Z,92.35
2022-09-10T03:14:24.698Z,92.09
2022-09-10T03:16:51.636Z,92.06
2022-09-10T03:19:18.563Z,92.62
2022-09-10T03:21:47.553Z,92.70
2022-09-10T03:24:15.592Z,92.95
2022-09-10T03:26:44.938Z,92.65
2022-09-10T03:29:15.535Z,92.95
2022-09-10T03:31:44.933Z,93.01
2022-09-10T03:34:12.630Z,92.89
2022-09-10T03:36:40.054Z,91.56
2022-09-10T03:39:09.334Z,91.66
2022-09-10T03:41:37.195Z,90.47
2022-09-10T03:44:03.952Z,90.94
2022-09-10T03:46:30.996Z,90.58
2022-09-10T03:49:02.443Z,92.00
2022-09-10T03:51:31.226Z,91.67
2022-09-10T03:53:59.719Z,92.36
2022-09-10T03:56:27.614Z,90.66
2022-09-10T03:58:54.371Z,91.59
2022-09-10T04:01:21.413Z,90.92
2022-09-10T04:03:48.934Z,90.49
2022-09-10T04:06:16.449Z,90.44
2022-09-10T04:08:46.311Z,89.80
2022-09-10T04:11:15.544Z,89.52
2022-09-10T04:13:43.371Z,90.12
2022-09-10T04:16:11.958Z,90.33
2022-09-10T04:18:39.901Z,91.08
2022-09-10T04:21:06.771Z,90.98
2022-09-10T04:23:54.648Z,90.85
2022-09-10T04:26:22.614Z,90.57
2022-09-10T04:28:50.273Z,89.91
2022-09-10T04:31:18.202Z,89.82
2022-09-10T04:33:45.861Z,89.14
2022-09-10T04:36:14.664Z,88.81
2022-09-10T04:38:44.607Z,89.53
2022-09-10T04:41:15.644Z,87.64
2022-09-10T04:43:43.610Z,89.94
2022-09-10T04:46:10.461Z,90.09
2022-09-10T04:48:39.986Z,89.28
2022-09-10T04:51:16.793Z,88.40
2022-09-10T04:53:46.794Z,90.21
2022-09-10T04:56:13.743Z,89.95
2022-09-10T04:58:42.100Z,90.92
2022-09-10T05:01:09.606Z,90.77
2022-09-10T05:03:37.356Z,90.97
2022-09-10T05:06:06.139Z,90.82
2022-09-10T05:08:33.534Z,91.06
2022-09-10T05:11:02.944Z,91.04
2022-09-10T05:13:31.829Z,90.84
2022-09-10T05:16:00.147Z,91.14
2022-09-10T05:18:27.101Z,90.29
2022-09-10T05:20:54.091Z,88.97
2022-09-10T05:23:20.901Z,89.16
2022-09-10T05:25:50.467Z,89.03
2022-09-10T05:28:18.072Z,90.03
2022-09-10T05:30:49.462Z,89.56
2022-09-10T05:33:21.449Z,89.64
2022-09-10T05:35:51.793Z,89.60
2022-09-10T05:38:20.062Z,89.04
2022-09-10T05:40:47.205Z,88.83
2022-09-10T05:43:14.012Z,88.92
2022-09-10T05:45:40.839Z,89.66
2022-09-10T05:48:07.739Z,89.70
2022-09-10T05:50:34.566Z,89.52
2022-09-10T05:53:01.401Z,89.69
2022-09-10T05:55:31.317Z,89.09
2022-09-10T05:57:58.620Z,89.72
2022-09-10T06:00:26.318Z,89.47
2022-09-10T06:02:58.593Z,90.60
2022-09-10T06:05:33.151Z,90.94
2022-09-10T06:08:06.552Z,89.83
2022-09-10T06:10:37.577Z,91.34
2022-09-10T06:13:04.402Z,91.36
2022-09-10T06:15:31.215Z,91.23
2022-09-10T06:17:58.578Z,91.79
2022-09-10T06:20:26.312Z,91.64
2022-09-10T06:22:53.119Z,91.00
2022-09-10T06:25:20.036Z,90.88
2022-09-10T06:27:47.655Z,91.23
2022-09-10T06:30:16.503Z,90.81
2022-09-10T06:32:46.762Z,91.58
2022-09-10T06:35:14.089Z,90.88
2022-09-10T06:37:40.902Z,91.56
2022-09-10T06:40:10.058Z,91.02
2022-09-10T06:42:37.278Z,91.05
2022-09-10T06:45:13.448Z,89.96
2022-09-10T06:50:56.624Z,89.12
2022-09-10T06:53:29.439Z,88.39
2022-09-10T06:55:56.972Z,88.32
2022-09-10T06:58:24.801Z,88.93
2022-09-10T07:00:52.775Z,88.22
2022-09-10T07:03:21.824Z,88.23
2022-09-10T07:05:51.165Z,88.98
2022-09-10T07:08:20.546Z,88.83
2022-09-10T07:10:52.011Z,89.08
2022-09-10T07:13:19.561Z,89.96
2022-09-10T07:15:47.659Z,90.66
2022-09-10T07:18:16.255Z,90.37
2022-09-10T07:20:44.256Z,89.98
2022-09-10T07:23:12.778Z,90.42
2022-09-10T07:25:41.665Z,90.64
2022-09-10T07:28:16.991Z,88.38
2022-09-10T07:30:47.498Z,89.35
2022-09-10T07:33:15.453Z,90.06
2022-09-10T07:35:44.162Z,89.88
2022-09-10T07:38:16.534Z,90.51
2022-09-10T07:40:45.337Z,89.53
2022-09-10T07:43:13.044Z,89.35
2022-09-10T07:45:40.416Z,88.66
2022-09-10T07:48:08.520Z,88.49
2022-09-10T07:50:38.662Z,89.09
2022-09-10T07:53:06.263Z,88.12
2022-09-10T07:55:34.369Z,88.76
2022-09-10T07:58:01.329Z,87.72
2022-09-10T08:00:29.942Z,86.74
2022-09-10T08:03:00.820Z,88.38
2022-09-10T08:05:28.915Z,86.80
2022-09-10T08:07:55.715Z,87.78
2022-09-10T08:10:25.291Z,87.94
2022-09-10T08:12:52.391Z,86.47
2022-09-10T08:15:20.160Z,85.42
2022-09-10T08:17:47.680Z,84.47
2022-09-10T08:20:15.952Z,84.48
2022-09-10T08:22:45.059Z,84.82
2022-09-10T08:25:12.262Z,85.19
2022-09-10T08:27:42.125Z,84.42
2022-09-10T08:30:10.232Z,85.00
2022-09-10T08:32:37.908Z,83.68
2022-09-10T08:35:06.464Z,83.97
2022-09-10T08:37:33.859Z,83.23
2022-09-10T08:40:01.927Z,84.16
2022-09-10T08:42:41.527Z,83.16
2022-09-10T08:45:24.430Z,82.80
2022-09-10T08:48:03.572Z,82.32
2022-09-10T08:50:38.037Z,82.41
2022-09-10T08:53:16.145Z,82.67
2022-09-10T08:55:47.090Z,82.03
2022-09-10T08:58:20.972Z,81.65
2022-09-10T09:00:53.842Z,81.65
2022-09-10T09:03:42.222Z,82.28
2022-09-10T09:06:58.080Z,82.79
2022-09-10T09:09:25.012Z,82.62
2022-09-10T09:12:02.168Z,81.47
2022-09-10T09:14:53.545Z,80.79
2022-09-10T09:17:37.149Z,79.56
2022-09-10T09:20:14.495Z,79.91
2022-09-10T09:23:06.586Z,80.27
2022-09-10T09:25:47.270Z,80.86
2022-09-10T09:28:47.271Z,80.06
2022-09-10T09:31:28.720Z,79.18
2022-09-10T09:34:07.257Z,78.19
2022-09-10T09:36:38.025Z,78.89
2022-09-10T09:39:31.486Z,78.92
2022-09-10T09:42:45.993Z,78.21
2022-09-10T09:45:34.985Z,75.95
2022-09-10T09:48:02.624Z,75.54
2022-09-10T09:50:34.372Z,74.63
2022-09-10T09:53:01.149Z,75.61
2022-09-10T09:55:40.734Z,74.80
2022-09-10T09:58:24.165Z,73.92
2022-09-10T10:00:55.940Z,73.55
2022-09-10T10:03:26.305Z,72.31
2022-09-10T10:06:08.638Z,72.50
2022-09-10T10:08:44.037Z,73.26
2022-09-10T10:11:16.161Z,72.76
2022-09-10T10:13:45.356Z,71.43
2022-09-10T10:16:36.329Z,71.87
2022-09-10T10:19:03.172Z,72.84
2022-09-10T10:21:32.194Z,71.43
2022-09-10T10:23:59.154Z,71.85
2022-09-10T10:26:30.494Z,71.96
2022-09-10T10:29:19.997Z,67.92
2022-09-10T10:31:48.500Z,67.84
2022-09-10T10:34:23.477Z,68.25
2022-09-10T10:36:56.846Z,67.89
2022-09-10T10:40:05.650Z,65.23
2022-09-10T10:42:36.474Z,64.41
2022-09-10T10:45:03.168Z,63.06
2022-09-10T10:47:34.808Z,64.35
2022-09-10T10:50:19.738Z,66.05
2022-09-10T10:53:07.641Z,64.41
2022-09-10T10:55:40.492Z,64.79
2022-09-10T10:58:35.136Z,65.20
2022-09-10T11:01:22.348Z,64.64
2022-09-10T11:04:01.428Z,64.38
2022-09-10T11:06:38.966Z,65.42
2022-09-10T11:09:34.314Z,63.35
2022-09-10T11:12:07.589Z,63.91
2022-09-10T11:14:56.151Z,63.99
2022-09-10T11:17:29.582Z,64.86
2022-09-10T11:20:24.787Z,65.39
2022-09-10T11:22:55.944Z,64.72
2022-09-10T11:25:27.887Z,63.88
2022-09-10T11:28:10.144Z,63.23
2022-09-10T11:30:39.415Z,64.57
2022-09-10T11:33:23.445Z,62.91
2022-09-10T11:36:13.105Z,63.10
2022-09-10T11:38:55.176Z,62.89
2022-09-10T11:41:24.095Z,63.33
2022-09-10T11:44:07.424Z,63.63
2022-09-10T11:46:39.395Z,65.01
2022-09-10T11:49:23.024Z,64.35
2022-09-10T11:51:49.899Z,64.20
2022-09-10T11:54:26.250Z,63.19
2022-09-10T11:57:01.374Z,62.84
2022-09-10T11:59:46.985Z,61.07
2022-09-10T12:02:43.071Z,61.32
2022-09-10T12:05:19.498Z,59.97
2022-09-10T12:07:58.305Z,59.34
2022-09-10T12:10:31.586Z,59.16
2022-09-10T12:12:58.907Z,60.12
2022-09-10T12:15:37.155Z,60.10
2022-09-10T12:18:13.523Z,60.40
2022-09-10T12:20:50.238Z,59.23
2022-09-10T12:23:21.046Z,56.04
2022-09-10T12:26:04.562Z,58.85
2022-09-10T12:28:43.688Z,55.90
2022-09-10T12:31:15.236Z,53.65
2022-09-10T12:33:45.369Z,53.37
2022-09-10T12:36:32.996Z,53.33
2022-09-10T12:39:21.784Z,54.18
2022-09-10T12:41:49.743Z,55.05
2022-09-10T12:44:36.433Z,54.37
2022-09-10T12:47:15.982Z,50.68
2022-09-10T12:49:49.716Z,51.59
2022-09-10T12:52:44.686Z,50.71
2022-09-10T12:55:37.341Z,48.68
2022-09-10T12:58:13.185Z,45.23
2022-09-10T13:01:01.649Z,44.11
2022-09-10T13:03:29.327Z,44.11
2022-09-10T13:05:58.601Z,42.92
2022-09-10T13:08:27.519Z,39.57
2022-09-10T13:11:01.289Z,48.10
2022-09-10T13:13:46.771Z,47.77
2022-09-10T13:16:19.785Z,48.19
2022-09-10T13:18:47.161Z,50.75
2022-09-10T13:21:25.729Z,51.57
2022-09-10T13:23:56.982Z,53.90
2022-09-10T13:26:34.127Z,54.13
2022-09-10T13:29:09.276Z,56.23
2022-09-10T13:31:42.646Z,55.97
2022-09-10T13:34:15.933Z,57.62
2022-09-10T13:37:19.903Z,57.00
2022-09-10T13:40:00.371Z,57.25
2022-09-10T13:42:57.175Z,57.95
2022-09-10T13:45:30.050Z,52.49
2022-09-10T13:48:02.824Z,49.79
2022-09-10T13:50:41.668Z,46.81
2022-09-10T13:53:10.767Z,43.60
2022-09-10T13:55:38.322Z,41.76
2022-09-10T13:58:28.424Z,40.35
2022-09-10T14:01:00.991Z,39.24
2022-09-10T14:03:36.231Z,41.96
2022-09-10T14:06:12.253Z,37.75
2022-09-10T14:08:42.331Z,39.54
2022-09-10T14:11:11.905Z,36.46
2022-09-10T14:13:59.981Z,37.40
2022-09-10T14:16:33.162Z,37.31
2022-09-10T14:19:03.238Z,37.25
2022-09-10T14:21:30.226Z,40.37
2022-09-10T14:24:01.687Z,40.00
2022-09-10T14:26:31.148Z,37.78
2022-09-10T14:28:59.674Z,38.13
2022-09-10T14:31:26.653Z,40.22
2022-09-10T14:33:55.540Z,43.38
2022-09-10T14:36:28.732Z,42.78
2022-09-10T14:39:14.447Z,45.02
2022-09-10T14:41:41.322Z,45.77
2022-09-10T14:44:23.907Z,46.88
2022-09-10T14:47:01.275Z,49.75
2022-09-10T14:49:33.720Z,44.35
2022-09-10T14:52:01.672Z,42.95
2022-09-10T14:54:32.080Z,40.95
2022-09-10T14:57:02.479Z,42.11
2022-09-10T14:59:38.563Z,39.85
2022-09-10T15:02:21.975Z,36.86
2022-09-10T15:04:49.485Z,38.79
2022-09-10T15:07:16.214Z,42.29
2022-09-10T15:09:43.059Z,45.31
2022-09-10T15:12:13.237Z,47.35
2022-09-10T15:14:40.008Z,45.41
2022-09-10T15:17:06.796Z,44.81
2022-09-10T15:19:33.670Z,44.68
2022-09-10T15:22:00.422Z,45.66
2022-09-10T15:24:28.403Z,45.88
2022-09-10T15:26:56.473Z,48.62
2022-09-10T15:29:23.915Z,48.92
2022-09-10T15:32:04.907Z,51.64
2022-09-10T15:34:31.728Z,51.27
2022-09-10T15:36:59.038Z,51.79
2022-09-10T15:39:26.010Z,50.98
2022-09-10T15:41:52.727Z,50.93
2022-09-10T15:44:19.509Z,50.29
2022-09-10T15:46:47.162Z,51.91
2022-09-10T15:49:14.077Z,52.23
2022-09-10T15:51:41.458Z,51.85
2022-09-10T15:54:10.884Z,53.84
2022-09-10T15:56:38.116Z,53.16
2022-09-10T15:59:11.735Z,52.55
2022-09-10T16:01:38.831Z,53.34
2022-09-10T16:04:06.245Z,52.31
2022-09-10T16:06:37.901Z,53.50
2022-09-10T16:09:07.718Z,52.82
2022-09-10T16:11:36.289Z,53.84
2022-09-10T16:14:05.561Z,53.76
2022-09-10T16:16:33.259Z,54.16
2022-09-10T16:19:00.908Z,54.18
2022-09-10T16:21:32.344Z,55.96
2022-09-10T16:24:00.703Z,54.36
2022-09-10T16:26:34.591Z,48.74
2022-09-10T16:29:04.299Z,45.61
2022-09-10T16:31:34.295Z,44.51
2022-09-10T16:34:10.837Z,41.83
2022-09-10T16:36:38.184Z,43.72
2022-09-10T16:39:11.794Z,42.41
2022-09-10T16:41:44.036Z,40.61
2022-09-10T16:44:12.510Z,44.06
2022-09-10T16:46:39.387Z,45.76
2022-09-10T16:49:08.524Z,44.11
2022-09-10T16:51:35.871Z,48.89
2022-09-10T16:54:04.619Z,49.67
2022-09-10T16:56:34.873Z,48.38
2022-09-10T16:59:01.839Z,49.02
2022-09-10T17:01:28.730Z,50.72
2022-09-10T17:03:56.237Z,50.02
2022-09-10T17:06:25.231Z,51.28
2022-09-10T17:08:55.298Z,51.74
2022-09-10T17:11:22.934Z,53.75
2022-09-10T17:13:51.115Z,53.37
2022-09-10T17:16:20.845Z,55.52
2022-09-10T17:18:52.974Z,54.64
2022-09-10T17:21:19.859Z,56.06
2022-09-10T17:23:46.665Z,55.88
2022-09-10T17:26:13.414Z,59.70
2022-09-10T17:28:40.563Z,59.37
2022-09-10T17:31:07.485Z,61.33
2022-09-10T17:33:34.297Z,59.24
2022-09-10T17:36:03.544Z,60.97
2022-09-10T17:38:31.055Z,60.55
2022-09-10T17:41:00.139Z,60.69
2022-09-10T17:43:28.852Z,60.72
2022-09-10T17:45:56.082Z,61.05
2022-09-10T17:48:34.409Z,61.72
2022-09-10T17:51:02.013Z,62.66
2022-09-10T17:53:28.871Z,63.04
2022-09-10T17:56:01.821Z,64.04
2022-09-10T17:58:28.670Z,64.52
2022-09-10T18:00:58.026Z,64.23
2022-09-10T18:03:24.757Z,64.34
2022-09-10T18:05:51.531Z,66.16
2022-09-10T18:08:19.218Z,65.15
2022-09-10T18:10:46.337Z,65.46
2022-09-10T18:13:13.386Z,66.09
2022-09-10T18:15:42.665Z,65.22
2022-09-10T18:18:10.096Z,66.82
2022-09-10T18:20:36.817Z,66.25
2022-09-10T18:23:03.844Z,66.51
2022-09-10T18:25:33.583Z,66.97
2022-09-10T18:28:01.545Z,68.85
2022-09-10T18:30:28.894Z,69.47
2022-09-10T18:32:55.630Z,69.79
2022-09-10T18:35:23.093Z,70.18
2022-09-10T18:37:51.764Z,70.21
2022-09-10T18:40:19.764Z,68.63
2022-09-10T18:42:49.398Z,71.66
2022-09-10T18:45:17.353Z,71.51
2022-09-10T18:47:45.185Z,72.11
2022-09-10T18:50:13.326Z,72.41
2022-09-10T18:52:40.269Z,73.13
2022-09-10T18:55:07.718Z,73.19
2022-09-10T18:57:34.475Z,72.57
2022-09-10T19:00:01.353Z,72.88
2022-09-10T19:02:28.197Z,73.52
2022-09-10T19:05:10.810Z,73.75
2022-09-10T19:07:38.774Z,74.72
2022-09-10T19:10:07.157Z,75.40
2022-09-10T19:12:34.390Z,76.11
2022-09-10T19:15:01.106Z,76.15
2022-09-10T19:17:27.880Z,75.81
2022-09-10T19:19:54.601Z,72.13
2022-09-10T19:22:21.415Z,75.10
2022-09-10T19:24:55.025Z,75.26
2022-09-10T19:27:23.664Z,76.13
2022-09-10T19:29:50.677Z,75.53
2022-09-10T19:32:19.703Z,76.85
2022-09-10T19:34:48.939Z,76.62
2022-09-10T19:37:15.798Z,77.29
2022-09-10T19:39:43.015Z,78.07
2022-09-10T19:42:10.029Z,77.86
2022-09-10T19:44:36.756Z,76.91
2022-09-10T19:47:04.169Z,77.25
2022-09-10T19:49:31.333Z,77.59
2022-09-10T19:51:58.165Z,77.27
2022-09-10T19:54:25.785Z,77.43
2022-09-10T19:56:52.625Z,76.39
2022-09-10T19:59:19.549Z,76.72
2022-09-10T20:01:46.785Z,76.17
2022-09-10T20:04:14.257Z,76.93
2022-09-10T20:06:46.084Z,76.62
2022-09-10T20:09:13.533Z,76.63
2022-09-10T20:11:41.082Z,74.52
2022-09-10T20:14:13.251Z,72.24
2022-09-10T20:16:44.879Z,76.17
2022-09-10T20:19:13.504Z,76.74
2022-09-10T20:21:42.224Z,77.79
2022-09-10T20:24:09.401Z,78.27
2022-09-10T20:26:47.105Z,77.24
2022-09-10T20:29:15.969Z,78.64
2022-09-10T20:31:43.277Z,79.18
2022-09-10T20:34:16.621Z,80.08
2022-09-10T20:36:44.004Z,79.79
2022-09-10T20:39:15.827Z,80.33
2022-09-10T20:41:43.363Z,80.17
2022-09-10T20:44:12.988Z,80.34
2022-09-10T20:46:41.636Z,79.85
2022-09-10T20:49:10.564Z,80.90
2022-09-10T20:51:38.858Z,80.46
2022-09-10T20:54:07.452Z,81.40
2022-09-10T20:56:34.204Z,81.31
2022-09-10T20:59:02.029Z,80.96
2022-09-10T21:01:31.387Z,80.66
2022-09-10T21:03:59.508Z,81.82
2022-09-10T21:06:31.372Z,81.34
2022-09-10T21:08:58.854Z,81.66
2022-09-10T21:11:27.584Z,81.50
2022-09-10T21:13:56.924Z,80.94
2022-09-10T21:16:28.587Z,80.64
2022-09-10T21:19:03.541Z,81.29
2022-09-10T21:21:32.731Z,81.36
2022-09-10T21:24:01.690Z,81.33
2022-09-10T21:26:31.409Z,80.59
2022-09-10T21:29:04.678Z,80.91
2022-09-10T21:31:31.905Z,80.54
2022-09-10T21:34:03.163Z,81.38
2022-09-10T21:36:32.022Z,81.32
2022-09-10T21:39:00.702Z,81.86
2022-09-10T21:41:35.550Z,82.57
2022-09-10T21:44:05.262Z,82.33
2022-09-10T21:46:32.466Z,82.39
2022-09-10T21:48:59.698Z,82.54
2022-09-10T21:51:26.856Z,81.06
2022-09-10T21:53:56.302Z,80.14
2022-09-10T21:56:24.869Z,80.60
2022-09-10T21:58:52.927Z,81.10
2022-09-10T22:01:22.691Z,80.24
2022-09-10T22:03:50.293Z,82.06
2022-09-10T22:06:20.231Z,81.33
2022-09-10T22:08:49.602Z,80.91
2022-09-10T22:11:19.847Z,82.37
2022-09-10T22:13:51.996Z,82.19
2022-09-10T22:16:20.574Z,82.53
2022-09-10T22:18:47.451Z,83.04
2022-09-10T22:21:14.814Z,83.23
2022-09-10T22:23:41.559Z,81.95
2022-09-10T22:26:14.465Z,83.01
2022-09-10T22:28:41.761Z,79.87
2022-09-10T22:31:10.417Z,81.48
2022-09-10T22:33:38.563Z,81.45
2022-09-10T22:36:20.406Z,81.12
2022-09-10T22:38:56.267Z,81.74
2022-09-10T22:41:23.244Z,82.56
2022-09-10T22:43:50.711Z,83.06
2022-09-10T22:46:18.576Z,83.10
2022-09-10T22:48:46.869Z,82.34
2022-09-10T22:51:16.669Z,82.64
2022-09-10T22:53:44.153Z,83.22
2022-09-10T22:56:13.532Z,82.81
2022-09-10T22:58:40.451Z,82.26
2022-09-10T23:01:09.777Z,82.00
2022-09-10T23:03:38.351Z,81.81
2022-09-10T23:06:08.427Z,81.15
2022-09-10T23:08:36.292Z,81.72
2022-09-10T23:11:17.581Z,80.84
2022-09-10T23:13:46.400Z,81.90
2022-09-10T23:16:14.687Z,81.62
2022-09-10T23:18:42.326Z,83.56
2022-09-10T23:21:09.971Z,84.24
2022-09-10T23:23:36.911Z,83.83
2022-09-10T23:26:08.967Z,82.81
2022-09-10T23:28:36.633Z,82.65
2022-09-10T23:31:23.927Z,83.71
2022-09-10T23:33:54.843Z,83.79
2022-09-10T23:36:22.188Z,82.93
2022-09-10T23:38:49.649Z,82.62
2022-09-10T23:41:16.833Z,83.21
2022-09-10T23:43:44.412Z,83.34
2022-09-10T23:46:11.765Z,82.67
2022-09-10T23:48:38.582Z,83.14
2022-09-10T23:51:06.627Z,82.76
2022-09-10T23:53:33.642Z,83.09
2022-09-10T23:56:02.816Z,82.75
2022-09-10T23:58:29.780Z,82.92
